sensor_id;sensor_type;location;lat;lon;timestamp;P1;durP1;ratioP1;P2;durP2;ratioP2
36817;SDS011;22761;51.542;16.450;2022-11-20T00:01:11;95.00;;;28.43;;
36817;SDS011;22761;51.542;16.450;2022-11-20T00:03:44;64.90;;;24.80;;
36817;SDS011;22761;51.542;16.450;2022-11-20T00:06:15;64.40;;;22.90;;
36817;SDS011;22761;51.542;16.450;2022-11-20T00:08:45;130.23;;;44.97;;
36817;SDS011;22761;51.542;16.450;2022-11-20T00:11:14;243.87;;;71.13;;
36817;SDS011;22761;51.542;16.450;2022-11-20T00:13:44;150.50;;;43.43;;
36817;SDS011;22761;51.542;16.450;2022-11-20T00:16:15;92.62;;;30.43;;
36817;SDS011;22761;51.542;16.450;2022-11-20T00:18:44;82.55;;;28.02;;
36817;SDS011;22761;51.542;16.450;2022-11-20T00:21:13;65.23;;;25.53;;
36817;SDS011;22761;51.542;16.450;2022-11-20T00:23:43;64.30;;;23.03;;
36817;SDS011;22761;51.542;16.450;2022-11-20T00:26:13;50.47;;;22.63;;
36817;SDS011;22761;51.542;16.450;2022-11-20T00:28:43;57.47;;;23.63;;
36817;SDS011;22761;51.542;16.450;2022-11-20T00:31:17;76.50;;;29.10;;
36817;SDS011;22761;51.542;16.450;2022-11-20T00:33:43;71.53;;;27.48;;
36817;SDS011;22761;51.542;16.450;2022-11-20T00:36:12;49.90;;;21.77;;
36817;SDS011;22761;51.542;16.450;2022-11-20T00:38:41;59.30;;;23.60;;
36817;SDS011;22761;51.542;16.450;2022-11-20T00:41:10;60.17;;;24.10;;
36817;SDS011;22761;51.542;16.450;2022-11-20T00:43:40;64.47;;;25.03;;
36817;SDS011;22761;51.542;16.450;2022-11-20T00:46:09;87.17;;;29.60;;
36817;SDS011;22761;51.542;16.450;2022-11-20T00:48:41;75.03;;;25.97;;
36817;SDS011;22761;51.542;16.450;2022-11-20T00:51:08;40.37;;;19.27;;
36817;SDS011;22761;51.542;16.450;2022-11-20T00:53:37;55.30;;;24.70;;
36817;SDS011;22761;51.542;16.450;2022-11-20T00:56:05;31.80;;;17.27;;
36817;SDS011;22761;51.542;16.450;2022-11-20T00:58:39;33.50;;;17.40;;
36817;SDS011;22761;51.542;16.450;2022-11-20T01:01:12;33.43;;;16.90;;
36817;SDS011;22761;51.542;16.450;2022-11-20T01:03:50;34.97;;;17.97;;
36817;SDS011;22761;51.542;16.450;2022-11-20T01:06:20;28.73;;;15.83;;
36817;SDS011;22761;51.542;16.450;2022-11-20T01:08:50;30.80;;;15.50;;
36817;SDS011;22761;51.542;16.450;2022-11-20T01:11:21;27.13;;;16.37;;
36817;SDS011;22761;51.542;16.450;2022-11-20T01:13:52;32.03;;;17.20;;
36817;SDS011;22761;51.542;16.450;2022-11-20T01:16:21;31.33;;;17.77;;
36817;SDS011;22761;51.542;16.450;2022-11-20T01:18:52;28.73;;;16.33;;
36817;SDS011;22761;51.542;16.450;2022-11-20T01:21:27;33.18;;;17.42;;
36817;SDS011;22761;51.542;16.450;2022-11-20T01:23:54;31.03;;;17.70;;
36817;SDS011;22761;51.542;16.450;2022-11-20T01:26:23;32.20;;;18.07;;
36817;SDS011;22761;51.542;16.450;2022-11-20T01:28:53;33.50;;;18.60;;
36817;SDS011;22761;51.542;16.450;2022-11-20T01:31:22;30.63;;;17.97;;
36817;SDS011;22761;51.542;16.450;2022-11-20T01:33:55;30.77;;;18.63;;
36817;SDS011;22761;51.542;16.450;2022-11-20T01:36:25;29.95;;;17.07;;
36817;SDS011;22761;51.542;16.450;2022-11-20T01:38:55;37.23;;;21.42;;
36817;SDS011;22761;51.542;16.450;2022-11-20T01:41:27;49.60;;;24.77;;
36817;SDS011;22761;51.542;16.450;2022-11-20T01:44:14;40.27;;;21.10;;
36817;SDS011;22761;51.542;16.450;2022-11-20T01:47:03;51.05;;;23.73;;
36817;SDS011;22761;51.542;16.450;2022-11-20T01:49:34;45.23;;;22.30;;
36817;SDS011;22761;51.542;16.450;2022-11-20T01:52:24;37.93;;;17.10;;
36817;SDS011;22761;51.542;16.450;2022-11-20T01:55:16;35.43;;;19.07;;
36817;SDS011;22761;51.542;16.450;2022-11-20T01:57:47;36.63;;;19.47;;
36817;SDS011;22761;51.542;16.450;2022-11-20T02:00:16;41.57;;;22.67;;
36817;SDS011;22761;51.542;16.450;2022-11-20T02:02:47;48.80;;;22.55;;
36817;SDS011;22761;51.542;16.450;2022-11-20T02:05:20;42.27;;;22.40;;
36817;SDS011;22761;51.542;16.450;2022-11-20T02:08:23;39.87;;;20.83;;
36817;SDS011;22761;51.542;16.450;2022-11-20T02:10:50;36.60;;;20.33;;
36817;SDS011;22761;51.542;16.450;2022-11-20T02:13:17;42.50;;;21.87;;
36817;SDS011;22761;51.542;16.450;2022-11-20T02:16:03;44.43;;;21.97;;
36817;SDS011;22761;51.542;16.450;2022-11-20T02:18:31;42.63;;;22.13;;
36817;SDS011;22761;51.542;16.450;2022-11-20T02:21:02;41.77;;;21.47;;
36817;SDS011;22761;51.542;16.450;2022-11-20T02:23:58;35.67;;;20.03;;
36817;SDS011;22761;51.542;16.450;2022-11-20T02:26:28;37.23;;;18.67;;
36817;SDS011;22761;51.542;16.450;2022-11-20T02:28:59;38.07;;;19.93;;
36817;SDS011;22761;51.542;16.450;2022-11-20T02:31:28;34.27;;;19.90;;
36817;SDS011;22761;51.542;16.450;2022-11-20T02:33:58;36.33;;;19.47;;
36817;SDS011;22761;51.542;16.450;2022-11-20T02:36:26;30.92;;;17.67;;
36817;SDS011;22761;51.542;16.450;2022-11-20T02:38:54;37.30;;;20.43;;
36817;SDS011;22761;51.542;16.450;2022-11-20T02:41:21;35.50;;;19.60;;
36817;SDS011;22761;51.542;16.450;2022-11-20T02:43:50;35.40;;;19.47;;
36817;SDS011;22761;51.542;16.450;2022-11-20T02:46:17;33.03;;;17.53;;
36817;SDS011;22761;51.542;16.450;2022-11-20T02:48:44;34.90;;;18.37;;
36817;SDS011;22761;51.542;16.450;2022-11-20T02:51:11;37.50;;;19.63;;
36817;SDS011;22761;51.542;16.450;2022-11-20T02:53:38;33.90;;;19.17;;
36817;SDS011;22761;51.542;16.450;2022-11-20T02:56:05;38.40;;;20.50;;
36817;SDS011;22761;51.542;16.450;2022-11-20T02:58:33;41.63;;;22.50;;
36817;SDS011;22761;51.542;16.450;2022-11-20T03:01:00;35.20;;;19.47;;
36817;SDS011;22761;51.542;16.450;2022-11-20T03:03:27;37.90;;;19.67;;
36817;SDS011;22761;51.542;16.450;2022-11-20T03:05:54;35.17;;;19.47;;
36817;SDS011;22761;51.542;16.450;2022-11-20T03:08:21;36.63;;;19.97;;
36817;SDS011;22761;51.542;16.450;2022-11-20T03:10:48;36.23;;;19.23;;
36817;SDS011;22761;51.542;16.450;2022-11-20T03:13:16;36.00;;;18.57;;
36817;SDS011;22761;51.542;16.450;2022-11-20T03:15:43;37.83;;;19.30;;
36817;SDS011;22761;51.542;16.450;2022-11-20T03:18:10;34.90;;;18.90;;
36817;SDS011;22761;51.542;16.450;2022-11-20T03:20:37;35.40;;;19.33;;
36817;SDS011;22761;51.542;16.450;2022-11-20T03:23:04;36.60;;;19.97;;
36817;SDS011;22761;51.542;16.450;2022-11-20T03:25:31;37.33;;;18.97;;
36817;SDS011;22761;51.542;16.450;2022-11-20T03:27:58;35.37;;;18.07;;
36817;SDS011;22761;51.542;16.450;2022-11-20T03:30:25;36.10;;;20.30;;
36817;SDS011;22761;51.542;16.450;2022-11-20T03:32:52;36.67;;;19.13;;
36817;SDS011;22761;51.542;16.450;2022-11-20T03:35:20;35.63;;;18.83;;
36817;SDS011;22761;51.542;16.450;2022-11-20T03:37:47;33.80;;;17.83;;
36817;SDS011;22761;51.542;16.450;2022-11-20T03:40:14;34.40;;;18.57;;
36817;SDS011;22761;51.542;16.450;2022-11-20T03:42:41;35.13;;;19.37;;
36817;SDS011;22761;51.542;16.450;2022-11-20T03:45:17;36.58;;;19.05;;
36817;SDS011;22761;51.542;16.450;2022-11-20T03:47:43;42.43;;;18.97;;
36817;SDS011;22761;51.542;16.450;2022-11-20T03:50:11;35.30;;;18.10;;
36817;SDS011;22761;51.542;16.450;2022-11-20T03:52:39;37.00;;;19.30;;
36817;SDS011;22761;51.542;16.450;2022-11-20T03:55:07;35.80;;;19.23;;
36817;SDS011;22761;51.542;16.450;2022-11-20T03:57:34;36.73;;;19.20;;
36817;SDS011;22761;51.542;16.450;2022-11-20T04:00:02;35.17;;;18.60;;
36817;SDS011;22761;51.542;16.450;2022-11-20T04:02:30;35.73;;;18.80;;
36817;SDS011;22761;51.542;16.450;2022-11-20T04:04:57;36.33;;;18.03;;
36817;SDS011;22761;51.542;16.450;2022-11-20T04:07:24;34.63;;;18.47;;
36817;SDS011;22761;51.542;16.450;2022-11-20T04:09:51;39.30;;;20.57;;
36817;SDS011;22761;51.542;16.450;2022-11-20T04:12:18;38.10;;;19.13;;
36817;SDS011;22761;51.542;16.450;2022-11-20T04:14:45;35.90;;;19.70;;
36817;SDS011;22761;51.542;16.450;2022-11-20T04:17:12;36.93;;;19.70;;
36817;SDS011;22761;51.542;16.450;2022-11-20T04:19:39;36.30;;;18.83;;
36817;SDS011;22761;51.542;16.450;2022-11-20T04:22:06;37.87;;;18.77;;
36817;SDS011;22761;51.542;16.450;2022-11-20T04:24:34;34.93;;;18.97;;
36817;SDS011;22761;51.542;16.450;2022-11-20T04:27:01;37.27;;;20.13;;
36817;SDS011;22761;51.542;16.450;2022-11-20T04:29:28;36.90;;;19.10;;
36817;SDS011;22761;51.542;16.450;2022-11-20T04:31:55;32.83;;;18.87;;
36817;SDS011;22761;51.542;16.450;2022-11-20T04:34:22;34.17;;;18.87;;
36817;SDS011;22761;51.542;16.450;2022-11-20T04:36:49;36.23;;;18.67;;
36817;SDS011;22761;51.542;16.450;2022-11-20T04:39:16;38.53;;;20.33;;
36817;SDS011;22761;51.542;16.450;2022-11-20T04:41:43;35.13;;;18.47;;
36817;SDS011;22761;51.542;16.450;2022-11-20T04:44:10;38.50;;;19.87;;
36817;SDS011;22761;51.542;16.450;2022-11-20T04:46:38;33.90;;;19.00;;
36817;SDS011;22761;51.542;16.450;2022-11-20T04:49:07;38.23;;;19.92;;
36817;SDS011;22761;51.542;16.450;2022-11-20T04:51:35;35.47;;;18.70;;
36817;SDS011;22761;51.542;16.450;2022-11-20T04:54:02;38.57;;;20.57;;
36817;SDS011;22761;51.542;16.450;2022-11-20T04:56:29;33.70;;;19.20;;
36817;SDS011;22761;51.542;16.450;2022-11-20T04:58:59;36.97;;;20.00;;
36817;SDS011;22761;51.542;16.450;2022-11-20T05:01:28;33.17;;;19.07;;
36817;SDS011;22761;51.542;16.450;2022-11-20T05:03:55;35.23;;;20.00;;
36817;SDS011;22761;51.542;16.450;2022-11-20T05:06:22;36.27;;;19.27;;
36817;SDS011;22761;51.542;16.450;2022-11-20T05:08:49;37.03;;;19.70;;
36817;SDS011;22761;51.542;16.450;2022-11-20T05:11:18;38.40;;;18.67;;
36817;SDS011;22761;51.542;16.450;2022-11-20T05:13:47;33.35;;;18.92;;
36817;SDS011;22761;51.542;16.450;2022-11-20T05:16:16;39.13;;;18.70;;
36817;SDS011;22761;51.542;16.450;2022-11-20T05:18:46;38.88;;;19.67;;
36817;SDS011;22761;51.542;16.450;2022-11-20T05:21:14;33.10;;;19.13;;
36817;SDS011;22761;51.542;16.450;2022-11-20T05:23:42;37.43;;;19.33;;
36817;SDS011;22761;51.542;16.450;2022-11-20T05:26:20;35.80;;;19.40;;
36817;SDS011;22761;51.542;16.450;2022-11-20T05:28:48;35.67;;;19.27;;
36817;SDS011;22761;51.542;16.450;2022-11-20T05:31:17;34.93;;;19.23;;
36817;SDS011;22761;51.542;16.450;2022-11-20T05:33:48;39.93;;;19.97;;
36817;SDS011;22761;51.542;16.450;2022-11-20T05:36:15;42.40;;;19.00;;
36817;SDS011;22761;51.542;16.450;2022-11-20T05:38:43;35.87;;;18.50;;
36817;SDS011;22761;51.542;16.450;2022-11-20T05:41:15;37.87;;;18.77;;
36817;SDS011;22761;51.542;16.450;2022-11-20T05:43:45;35.33;;;19.87;;
36817;SDS011;22761;51.542;16.450;2022-11-20T05:46:14;32.67;;;18.47;;
36817;SDS011;22761;51.542;16.450;2022-11-20T05:51:14;33.17;;;17.73;;
36817;SDS011;22761;51.542;16.450;2022-11-20T05:53:44;32.77;;;17.43;;
36817;SDS011;22761;51.542;16.450;2022-11-20T05:56:12;32.33;;;16.83;;
36817;SDS011;22761;51.542;16.450;2022-11-20T05:58:43;33.70;;;17.40;;
36817;SDS011;22761;51.542;16.450;2022-11-20T06:01:18;30.83;;;16.63;;
36817;SDS011;22761;51.542;16.450;2022-11-20T06:03:49;32.00;;;17.97;;
36817;SDS011;22761;51.542;16.450;2022-11-20T06:06:17;34.43;;;17.37;;
36817;SDS011;22761;51.542;16.450;2022-11-20T06:08:45;29.43;;;16.33;;
36817;SDS011;22761;51.542;16.450;2022-11-20T06:11:13;31.60;;;17.17;;
36817;SDS011;22761;51.542;16.450;2022-11-20T06:13:42;33.30;;;16.90;;
36817;SDS011;22761;51.542;16.450;2022-11-20T06:16:10;34.50;;;18.93;;
36817;SDS011;22761;51.542;16.450;2022-11-20T06:18:39;39.83;;;18.02;;
36817;SDS011;22761;51.542;16.450;2022-11-20T06:21:10;33.73;;;17.53;;
36817;SDS011;22761;51.542;16.450;2022-11-20T06:23:40;29.37;;;16.20;;
36817;SDS011;22761;51.542;16.450;2022-11-20T06:26:11;31.17;;;16.27;;
36817;SDS011;22761;51.542;16.450;2022-11-20T06:28:42;32.30;;;16.97;;
36817;SDS011;22761;51.542;16.450;2022-11-20T06:31:10;28.27;;;17.03;;
36817;SDS011;22761;51.542;16.450;2022-11-20T06:33:39;30.77;;;16.32;;
36817;SDS011;22761;51.542;16.450;2022-11-20T06:36:07;32.37;;;17.47;;
36817;SDS011;22761;51.542;16.450;2022-11-20T06:38:36;28.97;;;15.30;;
36817;SDS011;22761;51.542;16.450;2022-11-20T06:41:05;29.90;;;15.73;;
36817;SDS011;22761;51.542;16.450;2022-11-20T06:43:33;33.30;;;16.73;;
36817;SDS011;22761;51.542;16.450;2022-11-20T06:46:00;31.30;;;17.47;;
36817;SDS011;22761;51.542;16.450;2022-11-20T06:48:27;31.37;;;16.57;;
36817;SDS011;22761;51.542;16.450;2022-11-20T06:50:55;32.43;;;16.43;;
36817;SDS011;22761;51.542;16.450;2022-11-20T06:53:23;33.43;;;17.60;;
36817;SDS011;22761;51.542;16.450;2022-11-20T06:55:50;30.43;;;17.10;;
36817;SDS011;22761;51.542;16.450;2022-11-20T06:58:18;30.67;;;17.03;;
36817;SDS011;22761;51.542;16.450;2022-11-20T07:00:45;31.33;;;17.67;;
36817;SDS011;22761;51.542;16.450;2022-11-20T07:03:12;29.60;;;16.30;;
36817;SDS011;22761;51.542;16.450;2022-11-20T07:05:40;28.40;;;17.10;;
36817;SDS011;22761;51.542;16.450;2022-11-20T07:08:07;31.53;;;16.17;;
36817;SDS011;22761;51.542;16.450;2022-11-20T07:10:34;30.47;;;16.90;;
36817;SDS011;22761;51.542;16.450;2022-11-20T07:13:02;30.10;;;17.17;;
36817;SDS011;22761;51.542;16.450;2022-11-20T07:15:28;55.73;;;28.83;;
36817;SDS011;22761;51.542;16.450;2022-11-20T07:17:58;49.07;;;21.43;;
36817;SDS011;22761;51.542;16.450;2022-11-20T07:20:25;31.57;;;18.47;;
36817;SDS011;22761;51.542;16.450;2022-11-20T07:22:53;38.53;;;18.33;;
36817;SDS011;22761;51.542;16.450;2022-11-20T07:25:22;30.73;;;17.63;;
36817;SDS011;22761;51.542;16.450;2022-11-20T07:27:52;32.33;;;17.33;;
36817;SDS011;22761;51.542;16.450;2022-11-20T07:30:24;35.40;;;18.03;;
36817;SDS011;22761;51.542;16.450;2022-11-20T07:32:53;35.47;;;18.97;;
36817;SDS011;22761;51.542;16.450;2022-11-20T07:35:21;35.43;;;18.33;;
36817;SDS011;22761;51.542;16.450;2022-11-20T07:37:49;30.43;;;17.73;;
36817;SDS011;22761;51.542;16.450;2022-11-20T07:40:17;36.80;;;18.77;;
36817;SDS011;22761;51.542;16.450;2022-11-20T07:42:48;34.27;;;17.50;;
36817;SDS011;22761;51.542;16.450;2022-11-20T07:45:17;35.90;;;17.97;;
36817;SDS011;22761;51.542;16.450;2022-11-20T07:47:45;32.70;;;17.57;;
36817;SDS011;22761;51.542;16.450;2022-11-20T07:50:12;37.53;;;19.53;;
36817;SDS011;22761;51.542;16.450;2022-11-20T07:52:40;32.23;;;16.13;;
36817;SDS011;22761;51.542;16.450;2022-11-20T07:55:08;34.37;;;18.13;;
36817;SDS011;22761;51.542;16.450;2022-11-20T07:57:36;30.50;;;16.97;;
36817;SDS011;22761;51.542;16.450;2022-11-20T08:00:03;32.53;;;17.00;;
36817;SDS011;22761;51.542;16.450;2022-11-20T08:02:36;33.30;;;16.90;;
36817;SDS011;22761;51.542;16.450;2022-11-20T08:05:06;60.37;;;28.57;;
36817;SDS011;22761;51.542;16.450;2022-11-20T08:07:39;59.50;;;27.85;;
36817;SDS011;22761;51.542;16.450;2022-11-20T08:10:09;61.90;;;29.13;;
36817;SDS011;22761;51.542;16.450;2022-11-20T08:12:49;120.20;;;46.70;;
36817;SDS011;22761;51.542;16.450;2022-11-20T08:15:36;83.83;;;31.77;;
36817;SDS011;22761;51.542;16.450;2022-11-20T08:18:05;129.70;;;49.83;;
36817;SDS011;22761;51.542;16.450;2022-11-20T08:20:36;48.90;;;23.50;;
36817;SDS011;22761;51.542;16.450;2022-11-20T08:23:04;35.23;;;19.83;;
36817;SDS011;22761;51.542;16.450;2022-11-20T08:25:34;63.20;;;30.90;;
36817;SDS011;22761;51.542;16.450;2022-11-20T08:28:05;51.30;;;25.70;;
36817;SDS011;22761;51.542;16.450;2022-11-20T08:30:35;39.53;;;21.20;;
36817;SDS011;22761;51.542;16.450;2022-11-20T08:33:03;37.73;;;20.13;;
36817;SDS011;22761;51.542;16.450;2022-11-20T08:35:38;53.60;;;24.87;;
36817;SDS011;22761;51.542;16.450;2022-11-20T08:38:04;52.93;;;25.30;;
36817;SDS011;22761;51.542;16.450;2022-11-20T08:40:32;59.40;;;22.83;;
36817;SDS011;22761;51.542;16.450;2022-11-20T08:42:59;45.73;;;22.17;;
36817;SDS011;22761;51.542;16.450;2022-11-20T08:45:26;43.00;;;19.60;;
36817;SDS011;22761;51.542;16.450;2022-11-20T08:47:59;45.97;;;21.77;;
36817;SDS011;22761;51.542;16.450;2022-11-20T08:50:28;31.13;;;16.70;;
36817;SDS011;22761;51.542;16.450;2022-11-20T08:53:04;36.77;;;19.40;;
36817;SDS011;22761;51.542;16.450;2022-11-20T08:55:31;40.43;;;22.50;;
36817;SDS011;22761;51.542;16.450;2022-11-20T08:58:02;42.67;;;23.43;;
36817;SDS011;22761;51.542;16.450;2022-11-20T09:00:31;37.27;;;21.07;;
36817;SDS011;22761;51.542;16.450;2022-11-20T09:03:00;35.67;;;19.07;;
36817;SDS011;22761;51.542;16.450;2022-11-20T09:05:27;36.53;;;20.33;;
36817;SDS011;22761;51.542;16.450;2022-11-20T09:07:58;36.93;;;20.97;;
36817;SDS011;22761;51.542;16.450;2022-11-20T09:12:53;36.13;;;19.43;;
36817;SDS011;22761;51.542;16.450;2022-11-20T09:15:22;38.17;;;19.00;;
36817;SDS011;22761;51.542;16.450;2022-11-20T09:18:01;37.98;;;20.95;;
36817;SDS011;22761;51.542;16.450;2022-11-20T09:20:31;32.40;;;19.40;;
36817;SDS011;22761;51.542;16.450;2022-11-20T09:22:58;26.83;;;16.50;;
36817;SDS011;22761;51.542;16.450;2022-11-20T09:25:25;28.77;;;18.50;;
36817;SDS011;22761;51.542;16.450;2022-11-20T09:27:59;31.37;;;19.33;;
36817;SDS011;22761;51.542;16.450;2022-11-20T09:30:26;40.10;;;20.97;;
36817;SDS011;22761;51.542;16.450;2022-11-20T09:32:54;35.27;;;20.53;;
36817;SDS011;22761;51.542;16.450;2022-11-20T09:35:21;32.97;;;21.00;;
36817;SDS011;22761;51.542;16.450;2022-11-20T09:37:48;31.53;;;18.73;;
36817;SDS011;22761;51.542;16.450;2022-11-20T09:43:10;28.93;;;18.83;;
36817;SDS011;22761;51.542;16.450;2022-11-20T09:54:06;28.10;;;18.40;;
36817;SDS011;22761;51.542;16.450;2022-11-20T09:56:46;33.25;;;19.37;;
36817;SDS011;22761;51.542;16.450;2022-11-20T10:13:38;25.47;;;17.03;;
36817;SDS011;22761;51.542;16.450;2022-11-20T10:16:46;30.10;;;17.80;;
36817;SDS011;22761;51.542;16.450;2022-11-20T10:25:22;25.17;;;16.83;;
36817;SDS011;22761;51.542;16.450;2022-11-20T10:30:59;21.57;;;13.77;;
36817;SDS011;22761;51.542;16.450;2022-11-20T10:33:25;21.20;;;14.50;;
36817;SDS011;22761;51.542;16.450;2022-11-20T10:36:01;21.50;;;14.78;;
36817;SDS011;22761;51.542;16.450;2022-11-20T10:38:39;22.23;;;15.57;;
36817;SDS011;22761;51.542;16.450;2022-11-20T10:41:15;18.83;;;13.63;;
36817;SDS011;22761;51.542;16.450;2022-11-20T10:43:54;18.83;;;13.53;;
36817;SDS011;22761;51.542;16.450;2022-11-20T10:46:44;18.83;;;13.27;;
36817;SDS011;22761;51.542;16.450;2022-11-20T10:49:16;19.30;;;13.20;;
36817;SDS011;22761;51.542;16.450;2022-11-20T10:51:59;17.37;;;13.07;;
36817;SDS011;22761;51.542;16.450;2022-11-20T11:00:00;21.87;;;13.27;;
36817;SDS011;22761;51.542;16.450;2022-11-20T11:08:14;19.17;;;13.10;;
36817;SDS011;22761;51.542;16.450;2022-11-20T11:13:23;15.25;;;11.80;;
36817;SDS011;22761;51.542;16.450;2022-11-20T11:15:56;14.43;;;11.75;;
36817;SDS011;22761;51.542;16.450;2022-11-20T11:18:31;17.10;;;13.20;;
36817;SDS011;22761;51.542;16.450;2022-11-20T11:21:02;17.48;;;13.18;;
36817;SDS011;22761;51.542;16.450;2022-11-20T11:26:05;18.80;;;13.75;;
36817;SDS011;22761;51.542;16.450;2022-11-20T11:28:59;20.20;;;13.90;;
36817;SDS011;22761;51.542;16.450;2022-11-20T11:31:30;17.17;;;12.55;;
36817;SDS011;22761;51.542;16.450;2022-11-20T11:36:41;14.60;;;11.50;;
36817;SDS011;22761;51.542;16.450;2022-11-20T11:39:25;16.60;;;11.80;;
36817;SDS011;22761;51.542;16.450;2022-11-20T11:41:55;17.37;;;12.37;;
36817;SDS011;22761;51.542;16.450;2022-11-20T11:44:25;16.12;;;11.55;;
36817;SDS011;22761;51.542;16.450;2022-11-20T11:47:30;15.78;;;11.73;;
36817;SDS011;22761;51.542;16.450;2022-11-20T11:50:07;17.77;;;12.65;;
36817;SDS011;22761;51.542;16.450;2022-11-20T11:55:25;15.30;;;12.00;;
36817;SDS011;22761;51.542;16.450;2022-11-20T12:01:29;17.45;;;12.85;;
36817;SDS011;22761;51.542;16.450;2022-11-20T12:04:13;16.77;;;12.60;;
36817;SDS011;22761;51.542;16.450;2022-11-20T12:06:10;15.27;;;11.27;;
36817;SDS011;22761;51.542;16.450;2022-11-20T12:08:53;12.43;;;9.43;;
36817;SDS011;22761;51.542;16.450;2022-11-20T12:11:33;14.93;;;8.90;;
36817;SDS011;22761;51.542;16.450;2022-11-20T12:14:35;13.33;;;9.40;;
36817;SDS011;22761;51.542;16.450;2022-11-20T12:17:13;15.13;;;11.38;;
36817;SDS011;22761;51.542;16.450;2022-11-20T12:22:16;12.45;;;7.80;;
36817;SDS011;22761;51.542;16.450;2022-11-20T12:25:24;8.70;;;7.12;;
36817;SDS011;22761;51.542;16.450;2022-11-20T12:30:41;10.48;;;8.00;;
36817;SDS011;22761;51.542;16.450;2022-11-20T12:36:19;12.27;;;8.83;;
36817;SDS011;22761;51.542;16.450;2022-11-20T12:42:05;11.87;;;8.90;;
36817;SDS011;22761;51.542;16.450;2022-11-20T12:45:14;12.87;;;9.27;;
36817;SDS011;22761;51.542;16.450;2022-11-20T12:56:42;14.83;;;9.50;;
36817;SDS011;22761;51.542;16.450;2022-11-20T13:02:40;14.43;;;9.30;;
36817;SDS011;22761;51.542;16.450;2022-11-20T13:05:43;13.68;;;9.23;;
36817;SDS011;22761;51.542;16.450;2022-11-20T13:08:31;13.43;;;9.33;;
36817;SDS011;22761;51.542;16.450;2022-11-20T13:11:03;12.83;;;8.70;;
36817;SDS011;22761;51.542;16.450;2022-11-20T13:13:48;14.80;;;9.50;;
36817;SDS011;22761;51.542;16.450;2022-11-20T13:19:14;15.20;;;10.07;;
36817;SDS011;22761;51.542;16.450;2022-11-20T13:21:44;16.27;;;10.08;;
36817;SDS011;22761;51.542;16.450;2022-11-20T13:27:00;17.07;;;10.90;;
36817;SDS011;22761;51.542;16.450;2022-11-20T13:29:31;17.03;;;10.13;;
36817;SDS011;22761;51.542;16.450;2022-11-20T13:32:22;38.20;;;15.67;;
36817;SDS011;22761;51.542;16.450;2022-11-20T13:34:56;63.23;;;22.27;;
36817;SDS011;22761;51.542;16.450;2022-11-20T13:37:33;75.57;;;25.97;;
36817;SDS011;22761;51.542;16.450;2022-11-20T13:45:27;21.57;;;12.00;;
36817;SDS011;22761;51.542;16.450;2022-11-20T13:48:00;15.60;;;10.40;;
36817;SDS011;22761;51.542;16.450;2022-11-20T13:53:13;23.27;;;12.37;;
36817;SDS011;22761;51.542;16.450;2022-11-20T13:56:10;16.73;;;10.80;;
36817;SDS011;22761;51.542;16.450;2022-11-20T13:58:58;17.93;;;11.10;;
36817;SDS011;22761;51.542;16.450;2022-11-20T14:01:41;42.43;;;18.90;;
36817;SDS011;22761;51.542;16.450;2022-11-20T14:04:18;38.40;;;20.83;;
36817;SDS011;22761;51.542;16.450;2022-11-20T14:06:44;71.03;;;35.87;;
36817;SDS011;22761;51.542;16.450;2022-11-20T14:09:24;48.05;;;23.80;;
36817;SDS011;22761;51.542;16.450;2022-11-20T14:11:54;37.63;;;19.37;;
36817;SDS011;22761;51.542;16.450;2022-11-20T14:14:29;28.90;;;17.87;;
36817;SDS011;22761;51.542;16.450;2022-11-20T14:17:07;22.13;;;13.80;;
36817;SDS011;22761;51.542;16.450;2022-11-20T14:19:38;31.97;;;17.13;;
36817;SDS011;22761;51.542;16.450;2022-11-20T14:22:15;43.23;;;22.10;;
36817;SDS011;22761;51.542;16.450;2022-11-20T14:24:48;49.53;;;24.23;;
36817;SDS011;22761;51.542;16.450;2022-11-20T14:27:38;29.07;;;16.93;;
36817;SDS011;22761;51.542;16.450;2022-11-20T14:30:12;21.17;;;13.57;;
36817;SDS011;22761;51.542;16.450;2022-11-20T14:32:44;20.00;;;12.83;;
36817;SDS011;22761;51.542;16.450;2022-11-20T14:35:26;19.32;;;12.05;;
36817;SDS011;22761;51.542;16.450;2022-11-20T14:37:56;20.47;;;12.87;;
36817;SDS011;22761;51.542;16.450;2022-11-20T14:40:28;18.37;;;11.77;;
36817;SDS011;22761;51.542;16.450;2022-11-20T14:43:06;18.00;;;11.40;;
36817;SDS011;22761;51.542;16.450;2022-11-20T14:46:02;18.53;;;11.40;;
36817;SDS011;22761;51.542;16.450;2022-11-20T14:51:23;15.37;;;9.73;;
36817;SDS011;22761;51.542;16.450;2022-11-20T14:54:17;17.87;;;11.23;;
36817;SDS011;22761;51.542;16.450;2022-11-20T14:56:55;17.03;;;10.23;;
36817;SDS011;22761;51.542;16.450;2022-11-20T14:59:26;17.67;;;11.03;;
36817;SDS011;22761;51.542;16.450;2022-11-20T15:02:01;18.43;;;11.07;;
36817;SDS011;22761;51.542;16.450;2022-11-20T15:04:32;17.87;;;10.60;;
36817;SDS011;22761;51.542;16.450;2022-11-20T15:06:59;17.40;;;10.30;;
36817;SDS011;22761;51.542;16.450;2022-11-20T15:09:27;17.87;;;10.60;;
36817;SDS011;22761;51.542;16.450;2022-11-20T15:11:55;18.03;;;10.53;;
36817;SDS011;22761;51.542;16.450;2022-11-20T15:14:26;18.23;;;10.33;;
36817;SDS011;22761;51.542;16.450;2022-11-20T15:16:54;23.37;;;13.90;;
36817;SDS011;22761;51.542;16.450;2022-11-20T15:19:23;27.43;;;15.60;;
36817;SDS011;22761;51.542;16.450;2022-11-20T15:21:52;30.80;;;18.48;;
36817;SDS011;22761;51.542;16.450;2022-11-20T15:24:20;32.87;;;18.37;;
36817;SDS011;22761;51.542;16.450;2022-11-20T15:26:50;24.85;;;13.45;;
36817;SDS011;22761;51.542;16.450;2022-11-20T15:29:17;28.63;;;16.47;;
36817;SDS011;22761;51.542;16.450;2022-11-20T15:31:47;33.73;;;17.87;;
36817;SDS011;22761;51.542;16.450;2022-11-20T15:34:15;33.07;;;17.57;;
36817;SDS011;22761;51.542;16.450;2022-11-20T15:36:43;24.77;;;13.97;;
36817;SDS011;22761;51.542;16.450;2022-11-20T15:39:11;30.30;;;16.47;;
36817;SDS011;22761;51.542;16.450;2022-11-20T15:41:38;40.03;;;23.00;;
36817;SDS011;22761;51.542;16.450;2022-11-20T15:44:07;40.23;;;22.30;;
36817;SDS011;22761;51.542;16.450;2022-11-20T15:46:39;36.30;;;20.67;;
36817;SDS011;22761;51.542;16.450;2022-11-20T15:49:11;37.50;;;20.87;;
36817;SDS011;22761;51.542;16.450;2022-11-20T15:51:46;35.77;;;20.17;;
36817;SDS011;22761;51.542;16.450;2022-11-20T15:54:21;44.30;;;24.87;;
36817;SDS011;22761;51.542;16.450;2022-11-20T15:56:48;36.77;;;21.10;;
36817;SDS011;22761;51.542;16.450;2022-11-20T15:59:20;35.90;;;20.47;;
36817;SDS011;22761;51.542;16.450;2022-11-20T16:01:47;38.53;;;21.00;;
36817;SDS011;22761;51.542;16.450;2022-11-20T16:04:15;32.77;;;18.43;;
36817;SDS011;22761;51.542;16.450;2022-11-20T16:06:44;26.73;;;14.58;;
36817;SDS011;22761;51.542;16.450;2022-11-20T16:09:11;30.73;;;15.47;;
36817;SDS011;22761;51.542;16.450;2022-11-20T16:11:40;24.03;;;13.17;;
36817;SDS011;22761;51.542;16.450;2022-11-20T16:14:08;25.50;;;12.30;;
36817;SDS011;22761;51.542;16.450;2022-11-20T16:16:55;21.17;;;13.17;;
36817;SDS011;22761;51.542;16.450;2022-11-20T16:19:22;23.47;;;13.00;;